createdAt,value
2022-11-07T00:02:09.873Z,16.02
2022-11-07T00:07:32.378Z,16.15
2022-11-07T00:12:54.564Z,15.17
2022-11-07T00:18:17.386Z,14.60
2022-11-07T00:23:39.877Z,14.03
2022-11-07T00:29:02.697Z,14.03
2022-11-07T00:34:25.026Z,13.48
2022-11-07T00:39:48.327Z,13.88
2022-11-07T00:45:12.148Z,13.60
2022-11-07T00:50:34.412Z,14.50
2022-11-07T00:55:56.579Z,14.28
2022-11-07T01:01:23.877Z,14.17
2022-11-07T01:06:49.145Z,14.53
2022-11-07T01:12:11.400Z,14.00
2022-11-07T01:17:33.564Z,13.47
2022-11-07T01:22:55.736Z,13.60
2022-11-07T01:28:18.786Z,13.88
2022-11-07T01:33:41.142Z,13.88
2022-11-07T01:39:05.260Z,14.28
2022-11-07T01:44:32.367Z,14.60
2022-11-07T01:49:56.960Z,14.17
2022-11-07T01:55:29.619Z,15.40
2022-11-07T02:00:52.437Z,13.20
2022-11-07T02:06:22.050Z,14.47
2022-11-07T02:11:45.081Z,14.50
2022-11-07T02:17:07.533Z,14.98
2022-11-07T02:22:55.723Z,13.70
2022-11-07T02:28:20.828Z,13.93
2022-11-07T02:33:43.160Z,14.13
2022-11-07T02:45:13.236Z,14.13
2022-11-07T02:50:35.747Z,13.73
2022-11-07T02:55:57.933Z,13.27
2022-11-07T03:01:20.569Z,12.67
2022-11-07T03:06:43.622Z,13.10
2022-11-07T03:12:05.782Z,13.93
2022-11-07T03:17:28.113Z,13.58
2022-11-07T03:22:50.368Z,14.83
2022-11-07T03:28:12.550Z,15.00
2022-11-07T03:33:35.213Z,15.60
2022-11-07T03:44:41.973Z,15.60
2022-11-07T03:56:12.926Z,15.87
2022-11-07T04:01:36.976Z,14.95
2022-11-07T04:13:14.632Z,16.77
2022-11-07T04:18:37.239Z,17.03
2022-11-07T04:23:59.479Z,17.37
2022-11-07T04:29:22.557Z,17.00
2022-11-07T04:34:44.865Z,17.40
2022-11-07T04:40:07.489Z,17.53
2022-11-07T04:45:31.206Z,16.60
2022-11-07T04:50:53.676Z,19.15
2022-11-07T04:56:15.826Z,19.27
2022-11-07T05:01:38.089Z,18.48
2022-11-07T05:07:00.839Z,19.33
2022-11-07T05:12:23.197Z,21.15
2022-11-07T05:17:45.694Z,20.50
2022-11-07T05:23:16.335Z,21.70
2022-11-07T05:28:41.261Z,22.60
2022-11-07T05:34:04.439Z,23.75
2022-11-07T05:39:26.613Z,24.32
2022-11-07T05:44:49.318Z,27.77
2022-11-07T05:50:11.697Z,30.53
2022-11-07T05:55:34.628Z,29.42
2022-11-07T06:00:57.443Z,28.23
2022-11-07T06:06:19.605Z,28.60
2022-11-07T06:11:41.860Z,29.80
2022-11-07T06:17:04.056Z,28.50
2022-11-07T06:22:26.231Z,29.47
2022-11-07T06:27:49.168Z,31.12
2022-11-07T06:33:18.124Z,31.33
2022-11-07T06:38:41.047Z,30.57
2022-11-07T06:44:04.007Z,28.98
2022-11-07T06:49:27.031Z,28.53
2022-11-07T06:54:49.757Z,29.10
2022-11-07T07:00:12.316Z,29.50
2022-11-07T07:05:34.876Z,29.55
2022-11-07T07:10:59.206Z,28.97
2022-11-07T07:16:21.972Z,26.70
2022-11-07T07:21:44.168Z,26.80
2022-11-07T07:27:06.343Z,25.92
2022-11-07T07:32:30.230Z,26.93
2022-11-07T07:37:54.136Z,25.70
2022-11-07T07:43:16.772Z,25.67
2022-11-07T07:48:39.721Z,25.73
2022-11-07T07:54:01.909Z,25.97
2022-11-07T07:59:24.177Z,23.90
2022-11-07T08:04:48.898Z,23.30
2022-11-07T08:10:39.510Z,23.03
2022-11-07T08:15:36.601Z,22.85
2022-11-07T08:21:00.609Z,23.47
2022-11-07T08:26:23.087Z,24.12
2022-11-07T08:31:45.420Z,24.67
2022-11-07T08:37:07.709Z,25.37
2022-11-07T08:42:30.327Z,27.00
2022-11-07T08:47:52.510Z,29.47
2022-11-07T08:53:15.332Z,27.57
2022-11-07T08:58:38.318Z,25.77
2022-11-07T09:04:00.674Z,29.27
2022-11-07T09:09:23.112Z,28.37
2022-11-07T09:14:45.336Z,22.90
2022-11-07T09:20:07.740Z,22.67
2022-11-07T09:25:30.524Z,20.77
2022-11-07T09:30:52.771Z,21.83
2022-11-07T09:36:17.417Z,20.30
2022-11-07T09:42:14.636Z,20.03
2022-11-07T09:47:43.357Z,19.13
2022-11-07T09:53:16.277Z,18.02
2022-11-07T09:58:55.435Z,14.77
2022-11-07T10:04:27.272Z,14.50
2022-11-07T10:09:50.719Z,14.23
2022-11-07T10:15:27.360Z,15.23
2022-11-07T10:21:35.714Z,14.40
2022-11-07T10:26:33.763Z,15.10
2022-11-07T10:32:00.828Z,15.23
2022-11-07T10:37:23.484Z,13.57
2022-11-07T10:42:47.565Z,13.72
2022-11-07T10:48:19.180Z,13.30
2022-11-07T10:53:47.212Z,13.83
2022-11-07T10:59:10.476Z,12.50
2022-11-07T11:04:39.428Z,13.17
2022-11-07T11:10:26.283Z,12.23
2022-11-07T11:16:04.393Z,10.37
2022-11-07T11:21:23.281Z,12.40
2022-11-07T11:26:55.341Z,9.97
2022-11-07T11:32:21.524Z,10.08
2022-11-07T11:37:47.503Z,10.23
2022-11-07T11:43:18.990Z,10.35
2022-11-07T11:48:52.686Z,10.57
2022-11-07T11:54:17.209Z,9.47
2022-11-07T12:00:22.504Z,9.50
2022-11-07T12:06:13.400Z,10.13
2022-11-07T12:11:55.414Z,9.63
2022-11-07T12:17:23.041Z,10.07
2022-11-07T12:22:56.685Z,9.57
2022-11-07T12:28:33.206Z,9.40
2022-11-07T12:34:08.621Z,9.23
2022-11-07T12:39:50.191Z,8.50
2022-11-07T12:51:28.890Z,9.63
2022-11-07T12:56:52.839Z,9.90
2022-11-07T13:02:22.500Z,8.90
2022-11-07T13:07:55.134Z,8.33
2022-11-07T13:13:41.471Z,8.70
2022-11-07T13:19:05.956Z,8.07
2022-11-07T13:24:34.084Z,7.60
2022-11-07T13:29:57.507Z,7.67
2022-11-07T13:35:31.552Z,7.40
2022-11-07T13:41:06.907Z,6.93
2022-11-07T13:47:01.381Z,7.13
2022-11-07T13:52:30.805Z,6.20
2022-11-07T13:57:58.564Z,5.50
2022-11-07T14:03:31.610Z,7.10
2022-11-07T14:09:00.126Z,6.30
2022-11-07T14:14:22.956Z,5.45
2022-11-07T14:19:55.271Z,6.07
2022-11-07T14:25:30.179Z,5.90
2022-11-07T14:30:55.596Z,7.17
2022-11-07T14:36:19.490Z,7.87
2022-11-07T14:41:45.047Z,9.10
2022-11-07T14:47:08.717Z,9.37
2022-11-07T14:52:44.428Z,9.30
2022-11-07T14:58:08.321Z,9.03
2022-11-07T15:03:38.012Z,11.57
2022-11-07T15:09:03.673Z,13.37
2022-11-07T15:14:38.908Z,13.38
2022-11-07T15:20:17.725Z,13.65
2022-11-07T15:26:02.688Z,12.70
2022-11-07T15:31:36.059Z,12.00
2022-11-07T15:36:58.587Z,11.88
2022-11-07T15:42:21.136Z,11.15
2022-11-07T15:47:43.492Z,11.00
2022-11-07T15:53:06.956Z,9.63
2022-11-07T15:58:33.109Z,9.18
2022-11-07T16:03:55.759Z,9.23
2022-11-07T16:09:23.483Z,9.50
2022-11-07T16:14:46.181Z,9.70
2022-11-07T16:20:08.537Z,10.18
2022-11-07T16:25:38.915Z,10.03
2022-11-07T16:31:01.338Z,10.30
2022-11-07T16:36:40.116Z,10.20
2022-11-07T16:42:02.701Z,9.40
2022-11-07T16:47:29.489Z,10.47
2022-11-07T16:52:52.037Z,9.93
2022-11-07T16:58:17.164Z,9.58
2022-11-07T17:03:40.300Z,10.40
2022-11-07T17:09:10.345Z,10.38
2022-11-07T17:14:26.476Z,10.08
2022-11-07T17:19:48.645Z,9.58
2022-11-07T17:25:11.014Z,10.07
2022-11-07T17:30:36.936Z,9.45
2022-11-07T17:36:00.443Z,9.25
2022-11-07T17:41:25.943Z,9.83
2022-11-07T17:46:53.159Z,9.93
2022-11-07T17:52:15.872Z,10.10
2022-11-07T17:57:39.715Z,10.08
2022-11-07T18:03:12.720Z,10.17
2022-11-07T18:08:51.588Z,11.73
2022-11-07T18:14:02.279Z,10.30
2022-11-07T18:19:25.141Z,10.37
2022-11-07T18:24:47.454Z,11.07
2022-11-07T18:30:10.717Z,10.43
2022-11-07T18:35:33.814Z,10.37
2022-11-07T18:41:13.287Z,9.87
2022-11-07T18:46:36.543Z,9.43
2022-11-07T18:51:59.436Z,8.60
2022-11-07T18:57:22.139Z,9.15
2022-11-07T19:02:44.862Z,8.88
2022-11-07T19:08:07.782Z,8.30
2022-11-07T19:13:30.533Z,8.33
2022-11-07T19:18:53.115Z,8.98
2022-11-07T19:24:15.673Z,8.88
2022-11-07T19:29:37.901Z,8.98
2022-11-07T19:35:00.134Z,10.08
2022-11-07T19:40:23.253Z,10.00
2022-11-07T19:45:48.378Z,10.50
2022-11-07T19:51:14.534Z,10.65
2022-11-07T19:56:39.035Z,11.97
2022-11-07T20:02:30.986Z,11.68
2022-11-07T20:07:26.022Z,11.53
2022-11-07T20:12:48.497Z,11.40
2022-11-07T20:18:11.321Z,10.97
2022-11-07T20:23:33.923Z,12.47
2022-11-07T20:28:56.692Z,12.53
2022-11-07T20:34:21.745Z,12.47
2022-11-07T20:39:46.239Z,12.65
2022-11-07T20:45:10.933Z,12.37
2022-11-07T20:50:33.280Z,12.37
2022-11-07T20:55:59.859Z,12.80
2022-11-07T21:01:30.063Z,13.08
2022-11-07T21:06:53.513Z,11.90
2022-11-07T21:12:15.794Z,12.47
2022-11-07T21:17:37.991Z,12.40
2022-11-07T21:23:03.340Z,12.50
2022-11-07T21:28:26.902Z,11.10
2022-11-07T21:33:49.765Z,11.33
2022-11-07T21:39:17.999Z,11.57
2022-11-07T21:44:40.427Z,11.10
2022-11-07T21:50:23.771Z,11.22
2022-11-07T21:55:27.896Z,11.53
2022-11-07T22:00:50.118Z,10.63
2022-11-07T22:06:14.556Z,10.72
2022-11-07T22:11:37.484Z,10.15
2022-11-07T22:17:01.778Z,10.38
2022-11-07T22:22:24.509Z,10.55
2022-11-07T22:27:46.798Z,10.60
2022-11-07T22:33:10.195Z,10.68
2022-11-07T22:38:33.182Z,10.40
2022-11-07T22:43:55.725Z,10.10
2022-11-07T22:49:18.841Z,9.93
2022-11-07T22:54:41.180Z,11.90
2022-11-07T23:00:20.060Z,9.73
2022-11-07T23:05:27.946Z,10.38
2022-11-07T23:10:50.207Z,10.43
2022-11-07T23:16:13.603Z,10.00
2022-11-07T23:21:37.892Z,9.80
2022-11-07T23:27:00.630Z,10.45
2022-11-07T23:32:27.617Z,9.40
2022-11-07T23:37:50.425Z,10.10
2022-11-07T23:43:13.170Z,9.50
2022-11-07T23:48:53.041Z,10.20
2022-11-07T23:54:33.040Z,10.47
